sensor_id;sensor_type;location;lat;lon;timestamp;P1;durP1;ratioP1;P2;durP2;ratioP2
36373;SDS011;22399;51.346;12.372;2023-07-13T00:01:15;4.03;;;1.05;;
36373;SDS011;22399;51.346;12.372;2023-07-13T00:03:45;1.95;;;0.50;;
36373;SDS011;22399;51.346;12.372;2023-07-13T00:06:13;1.92;;;0.80;;
36373;SDS011;22399;51.346;12.372;2023-07-13T00:08:41;6.95;;;0.90;;
36373;SDS011;22399;51.346;12.372;2023-07-13T00:11:11;4.75;;;0.63;;
36373;SDS011;22399;51.346;12.372;2023-07-13T00:13:40;1.02;;;0.68;;
36373;SDS011;22399;51.346;12.372;2023-07-13T00:16:10;3.80;;;0.55;;
36373;SDS011;22399;51.346;12.372;2023-07-13T00:18:42;9.50;;;1.25;;
36373;SDS011;22399;51.346;12.372;2023-07-13T00:21:11;3.58;;;0.82;;
36373;SDS011;22399;51.346;12.372;2023-07-13T00:23:40;4.43;;;0.75;;
36373;SDS011;22399;51.346;12.372;2023-07-13T00:26:10;1.02;;;0.60;;
36373;SDS011;22399;51.346;12.372;2023-07-13T00:28:40;2.20;;;0.77;;
36373;SDS011;22399;51.346;12.372;2023-07-13T00:31:09;1.08;;;0.88;;
36373;SDS011;22399;51.346;12.372;2023-07-13T00:33:39;1.58;;;0.60;;
36373;SDS011;22399;51.346;12.372;2023-07-13T00:36:10;0.75;;;0.55;;
36373;SDS011;22399;51.346;12.372;2023-07-13T00:38:40;4.60;;;0.90;;
36373;SDS011;22399;51.346;12.372;2023-07-13T00:41:09;7.78;;;0.68;;
36373;SDS011;22399;51.346;12.372;2023-07-13T00:43:37;1.25;;;0.82;;
36373;SDS011;22399;51.346;12.372;2023-07-13T00:46:16;3.70;;;0.57;;
36373;SDS011;22399;51.346;12.372;2023-07-13T00:48:53;6.18;;;0.90;;
36373;SDS011;22399;51.346;12.372;2023-07-13T00:51:27;1.17;;;0.70;;
36373;SDS011;22399;51.346;12.372;2023-07-13T00:56:31;3.53;;;0.70;;
36373;SDS011;22399;51.346;12.372;2023-07-13T00:59:02;0.50;;;0.40;;
36373;SDS011;22399;51.346;12.372;2023-07-13T01:01:32;1.40;;;0.50;;
36373;SDS011;22399;51.346;12.372;2023-07-13T01:04:04;2.40;;;0.90;;
36373;SDS011;22399;51.346;12.372;2023-07-13T01:06:36;3.45;;;0.80;;
36373;SDS011;22399;51.346;12.372;2023-07-13T01:09:05;0.85;;;0.45;;
36373;SDS011;22399;51.346;12.372;2023-07-13T01:11:37;1.55;;;0.93;;
36373;SDS011;22399;51.346;12.372;2023-07-13T01:14:06;1.08;;;0.60;;
36373;SDS011;22399;51.346;12.372;2023-07-13T01:16:36;3.75;;;0.88;;
36373;SDS011;22399;51.346;12.372;2023-07-13T01:19:07;1.25;;;0.70;;
36373;SDS011;22399;51.346;12.372;2023-07-13T01:21:49;17.30;;;1.08;;
36373;SDS011;22399;51.346;12.372;2023-07-13T01:24:18;4.10;;;0.88;;
36373;SDS011;22399;51.346;12.372;2023-07-13T01:26:48;4.57;;;0.73;;
36373;SDS011;22399;51.346;12.372;2023-07-13T01:29:17;5.90;;;0.88;;
36373;SDS011;22399;51.346;12.372;2023-07-13T01:31:45;1.73;;;0.65;;
36373;SDS011;22399;51.346;12.372;2023-07-13T01:34:14;6.63;;;0.63;;
36373;SDS011;22399;51.346;12.372;2023-07-13T01:36:43;1.67;;;0.75;;
36373;SDS011;22399;51.346;12.372;2023-07-13T01:39:13;0.57;;;0.38;;
36373;SDS011;22399;51.346;12.372;2023-07-13T01:41:43;1.00;;;0.68;;
36373;SDS011;22399;51.346;12.372;2023-07-13T01:44:12;3.88;;;0.55;;
36373;SDS011;22399;51.346;12.372;2023-07-13T01:46:40;1.95;;;0.50;;
36373;SDS011;22399;51.346;12.372;2023-07-13T01:49:10;6.63;;;1.48;;
36373;SDS011;22399;51.346;12.372;2023-07-13T01:51:38;1.98;;;0.85;;
36373;SDS011;22399;51.346;12.372;2023-07-13T01:54:08;1.58;;;0.70;;
36373;SDS011;22399;51.346;12.372;2023-07-13T01:56:36;10.65;;;0.82;;
36373;SDS011;22399;51.346;12.372;2023-07-13T01:59:06;4.75;;;1.35;;
36373;SDS011;22399;51.346;12.372;2023-07-13T02:01:35;2.90;;;0.52;;
36373;SDS011;22399;51.346;12.372;2023-07-13T02:04:04;3.50;;;0.90;;
36373;SDS011;22399;51.346;12.372;2023-07-13T02:06:33;1.35;;;0.75;;
36373;SDS011;22399;51.346;12.372;2023-07-13T02:09:01;2.28;;;1.15;;
36373;SDS011;22399;51.346;12.372;2023-07-13T02:11:31;3.15;;;0.85;;
36373;SDS011;22399;51.346;12.372;2023-07-13T02:14:00;1.17;;;0.47;;
36373;SDS011;22399;51.346;12.372;2023-07-13T02:16:30;2.45;;;0.95;;
36373;SDS011;22399;51.346;12.372;2023-07-13T02:18:58;3.63;;;0.85;;
36373;SDS011;22399;51.346;12.372;2023-07-13T02:21:28;1.75;;;0.65;;
36373;SDS011;22399;51.346;12.372;2023-07-13T02:23:57;7.43;;;0.65;;
36373;SDS011;22399;51.346;12.372;2023-07-13T02:26:26;6.30;;;0.93;;
36373;SDS011;22399;51.346;12.372;2023-07-13T02:28:56;1.58;;;0.70;;
36373;SDS011;22399;51.346;12.372;2023-07-13T02:31:25;3.40;;;0.80;;
36373;SDS011;22399;51.346;12.372;2023-07-13T02:33:53;5.72;;;0.80;;
36373;SDS011;22399;51.346;12.372;2023-07-13T02:36:21;4.70;;;1.15;;
36373;SDS011;22399;51.346;12.372;2023-07-13T02:38:50;3.05;;;0.95;;
36373;SDS011;22399;51.346;12.372;2023-07-13T02:41:18;4.80;;;0.90;;
36373;SDS011;22399;51.346;12.372;2023-07-13T02:43:47;4.30;;;0.90;;
36373;SDS011;22399;51.346;12.372;2023-07-13T02:46:17;1.75;;;0.70;;
36373;SDS011;22399;51.346;12.372;2023-07-13T02:48:46;2.05;;;0.60;;
36373;SDS011;22399;51.346;12.372;2023-07-13T02:51:14;8.93;;;0.82;;
36373;SDS011;22399;51.346;12.372;2023-07-13T02:53:43;3.45;;;0.85;;
36373;SDS011;22399;51.346;12.372;2023-07-13T02:56:12;5.85;;;0.80;;
36373;SDS011;22399;51.346;12.372;2023-07-13T02:58:43;8.27;;;1.38;;
36373;SDS011;22399;51.346;12.372;2023-07-13T03:01:12;5.95;;;1.00;;
36373;SDS011;22399;51.346;12.372;2023-07-13T03:03:47;2.55;;;0.90;;
36373;SDS011;22399;51.346;12.372;2023-07-13T03:06:18;1.85;;;0.70;;
36373;SDS011;22399;51.346;12.372;2023-07-13T03:08:52;2.22;;;0.70;;
36373;SDS011;22399;51.346;12.372;2023-07-13T03:11:22;1.23;;;0.77;;
36373;SDS011;22399;51.346;12.372;2023-07-13T03:13:57;3.63;;;1.20;;
36373;SDS011;22399;51.346;12.372;2023-07-13T03:16:29;5.30;;;1.10;;
36373;SDS011;22399;51.346;12.372;2023-07-13T03:19:00;2.42;;;0.68;;
36373;SDS011;22399;51.346;12.372;2023-07-13T03:21:29;11.55;;;0.85;;
36373;SDS011;22399;51.346;12.372;2023-07-13T03:23:58;2.65;;;0.80;;
36373;SDS011;22399;51.346;12.372;2023-07-13T03:26:27;5.47;;;1.05;;
36373;SDS011;22399;51.346;12.372;2023-07-13T03:28:56;3.45;;;0.80;;
36373;SDS011;22399;51.346;12.372;2023-07-13T03:31:25;4.70;;;1.05;;
36373;SDS011;22399;51.346;12.372;2023-07-13T03:33:56;2.05;;;0.80;;
36373;SDS011;22399;51.346;12.372;2023-07-13T03:36:28;4.30;;;1.00;;
36373;SDS011;22399;51.346;12.372;2023-07-13T03:39:04;3.85;;;1.05;;
36373;SDS011;22399;51.346;12.372;2023-07-13T03:41:47;3.03;;;0.82;;
36373;SDS011;22399;51.346;12.372;2023-07-13T03:44:16;1.88;;;0.93;;
36373;SDS011;22399;51.346;12.372;2023-07-13T03:46:49;1.38;;;0.80;;
36373;SDS011;22399;51.346;12.372;2023-07-13T03:49:18;12.73;;;1.30;;
36373;SDS011;22399;51.346;12.372;2023-07-13T03:51:48;6.55;;;1.08;;
36373;SDS011;22399;51.346;12.372;2023-07-13T03:54:20;8.82;;;1.25;;
36373;SDS011;22399;51.346;12.372;2023-07-13T03:56:48;5.63;;;1.05;;
36373;SDS011;22399;51.346;12.372;2023-07-13T03:59:18;3.13;;;0.93;;
36373;SDS011;22399;51.346;12.372;2023-07-13T04:01:47;2.33;;;1.10;;
36373;SDS011;22399;51.346;12.372;2023-07-13T04:04:15;2.40;;;1.00;;
36373;SDS011;22399;51.346;12.372;2023-07-13T04:06:44;10.25;;;1.58;;
36373;SDS011;22399;51.346;12.372;2023-07-13T04:09:14;7.53;;;1.20;;
36373;SDS011;22399;51.346;12.372;2023-07-13T04:11:43;4.28;;;1.65;;
36373;SDS011;22399;51.346;12.372;2023-07-13T04:14:12;6.57;;;1.35;;
36373;SDS011;22399;51.346;12.372;2023-07-13T04:16:40;12.65;;;1.33;;
36373;SDS011;22399;51.346;12.372;2023-07-13T04:19:10;8.50;;;1.20;;
36373;SDS011;22399;51.346;12.372;2023-07-13T04:21:38;1.52;;;0.93;;
36373;SDS011;22399;51.346;12.372;2023-07-13T04:24:07;3.47;;;1.33;;
36373;SDS011;22399;51.346;12.372;2023-07-13T04:26:37;1.60;;;0.93;;
36373;SDS011;22399;51.346;12.372;2023-07-13T04:29:06;4.43;;;0.95;;
36373;SDS011;22399;51.346;12.372;2023-07-13T04:31:35;5.50;;;1.45;;
36373;SDS011;22399;51.346;12.372;2023-07-13T04:34:04;1.75;;;1.25;;
36373;SDS011;22399;51.346;12.372;2023-07-13T04:36:32;5.57;;;1.15;;
36373;SDS011;22399;51.346;12.372;2023-07-13T04:39:04;5.15;;;1.48;;
36373;SDS011;22399;51.346;12.372;2023-07-13T04:41:33;8.95;;;1.85;;
36373;SDS011;22399;51.346;12.372;2023-07-13T04:44:03;12.35;;;1.95;;
36373;SDS011;22399;51.346;12.372;2023-07-13T04:46:32;7.43;;;0.93;;
36373;SDS011;22399;51.346;12.372;2023-07-13T04:49:01;7.32;;;1.90;;
36373;SDS011;22399;51.346;12.372;2023-07-13T04:51:31;0.80;;;0.80;;
36373;SDS011;22399;51.346;12.372;2023-07-13T04:54:00;3.00;;;1.35;;
36373;SDS011;22399;51.346;12.372;2023-07-13T04:56:28;12.80;;;1.50;;
36373;SDS011;22399;51.346;12.372;2023-07-13T04:58:57;7.25;;;1.33;;
36373;SDS011;22399;51.346;12.372;2023-07-13T05:01:27;3.45;;;1.15;;
36373;SDS011;22399;51.346;12.372;2023-07-13T05:03:56;4.22;;;1.40;;
36373;SDS011;22399;51.346;12.372;2023-07-13T05:06:26;9.55;;;1.50;;
36373;SDS011;22399;51.346;12.372;2023-07-13T05:08:55;3.70;;;1.13;;
36373;SDS011;22399;51.346;12.372;2023-07-13T05:11:23;6.28;;;1.30;;
36373;SDS011;22399;51.346;12.372;2023-07-13T05:13:51;3.75;;;1.20;;
36373;SDS011;22399;51.346;12.372;2023-07-13T05:16:20;6.25;;;1.30;;
36373;SDS011;22399;51.346;12.372;2023-07-13T05:18:50;8.35;;;1.70;;
36373;SDS011;22399;51.346;12.372;2023-07-13T05:21:18;12.02;;;1.25;;
36373;SDS011;22399;51.346;12.372;2023-07-13T05:23:47;6.13;;;1.10;;
36373;SDS011;22399;51.346;12.372;2023-07-13T05:26:15;6.63;;;1.35;;
36373;SDS011;22399;51.346;12.372;2023-07-13T05:28:44;13.73;;;1.40;;
36373;SDS011;22399;51.346;12.372;2023-07-13T05:31:13;4.13;;;1.42;;
36373;SDS011;22399;51.346;12.372;2023-07-13T05:33:42;3.95;;;1.25;;
36373;SDS011;22399;51.346;12.372;2023-07-13T05:36:11;4.80;;;1.13;;
36373;SDS011;22399;51.346;12.372;2023-07-13T05:38:40;6.28;;;1.10;;
36373;SDS011;22399;51.346;12.372;2023-07-13T05:41:08;6.00;;;1.27;;
36373;SDS011;22399;51.346;12.372;2023-07-13T05:43:37;3.50;;;1.08;;
36373;SDS011;22399;51.346;12.372;2023-07-13T05:46:06;3.63;;;1.17;;
36373;SDS011;22399;51.346;12.372;2023-07-13T05:48:34;8.10;;;0.90;;
36373;SDS011;22399;51.346;12.372;2023-07-13T05:51:02;4.13;;;1.02;;
36373;SDS011;22399;51.346;12.372;2023-07-13T05:53:33;5.65;;;1.02;;
36373;SDS011;22399;51.346;12.372;2023-07-13T05:56:02;3.63;;;0.90;;
36373;SDS011;22399;51.346;12.372;2023-07-13T05:58:31;2.92;;;0.88;;
36373;SDS011;22399;51.346;12.372;2023-07-13T06:01:01;3.20;;;0.85;;
36373;SDS011;22399;51.346;12.372;2023-07-13T06:03:32;2.10;;;1.02;;
36373;SDS011;22399;51.346;12.372;2023-07-13T06:06:01;2.05;;;0.75;;
36373;SDS011;22399;51.346;12.372;2023-07-13T06:08:29;7.80;;;1.05;;
36373;SDS011;22399;51.346;12.372;2023-07-13T06:11:04;1.40;;;1.00;;
36373;SDS011;22399;51.346;12.372;2023-07-13T06:13:34;4.53;;;0.77;;
36373;SDS011;22399;51.346;12.372;2023-07-13T06:16:02;4.38;;;0.93;;
36373;SDS011;22399;51.346;12.372;2023-07-13T06:18:36;3.38;;;0.93;;
36373;SDS011;22399;51.346;12.372;2023-07-13T06:21:05;2.00;;;1.00;;
36373;SDS011;22399;51.346;12.372;2023-07-13T06:23:35;1.38;;;1.00;;
36373;SDS011;22399;51.346;12.372;2023-07-13T06:26:06;5.93;;;0.60;;
36373;SDS011;22399;51.346;12.372;2023-07-13T06:28:36;11.30;;;0.90;;
36373;SDS011;22399;51.346;12.372;2023-07-13T06:31:06;2.78;;;0.80;;
36373;SDS011;22399;51.346;12.372;2023-07-13T06:33:37;0.73;;;0.70;;
36373;SDS011;22399;51.346;12.372;2023-07-13T06:36:06;3.28;;;0.70;;
36373;SDS011;22399;51.346;12.372;2023-07-13T06:38:36;5.35;;;1.17;;
36373;SDS011;22399;51.346;12.372;2023-07-13T06:41:07;3.78;;;0.70;;
36373;SDS011;22399;51.346;12.372;2023-07-13T06:43:37;2.28;;;0.60;;
36373;SDS011;22399;51.346;12.372;2023-07-13T06:46:05;5.70;;;0.65;;
36373;SDS011;22399;51.346;12.372;2023-07-13T06:48:34;7.00;;;0.90;;
36373;SDS011;22399;51.346;12.372;2023-07-13T06:51:03;2.30;;;0.85;;
36373;SDS011;22399;51.346;12.372;2023-07-13T06:53:32;5.35;;;0.75;;
36373;SDS011;22399;51.346;12.372;2023-07-13T06:56:01;0.88;;;0.60;;
36373;SDS011;22399;51.346;12.372;2023-07-13T06:58:34;5.72;;;0.60;;
36373;SDS011;22399;51.346;12.372;2023-07-13T07:01:03;1.65;;;0.50;;
36373;SDS011;22399;51.346;12.372;2023-07-13T07:03:34;1.60;;;0.57;;
36373;SDS011;22399;51.346;12.372;2023-07-13T07:06:06;3.50;;;0.57;;
36373;SDS011;22399;51.346;12.372;2023-07-13T07:08:41;4.53;;;1.20;;
36373;SDS011;22399;51.346;12.372;2023-07-13T07:11:11;1.92;;;0.73;;
36373;SDS011;22399;51.346;12.372;2023-07-13T07:13:42;2.70;;;0.50;;
36373;SDS011;22399;51.346;12.372;2023-07-13T07:16:11;9.85;;;1.08;;
36373;SDS011;22399;51.346;12.372;2023-07-13T07:18:40;4.47;;;1.45;;
36373;SDS011;22399;51.346;12.372;2023-07-13T07:21:08;5.72;;;0.98;;
36373;SDS011;22399;51.346;12.372;2023-07-13T07:23:37;3.25;;;1.00;;
36373;SDS011;22399;51.346;12.372;2023-07-13T07:26:06;6.50;;;1.58;;
36373;SDS011;22399;51.346;12.372;2023-07-13T07:28:36;7.65;;;1.52;;
36373;SDS011;22399;51.346;12.372;2023-07-13T07:31:10;16.35;;;1.15;;
36373;SDS011;22399;51.346;12.372;2023-07-13T07:33:42;2.80;;;0.80;;
36373;SDS011;22399;51.346;12.372;2023-07-13T07:36:11;2.17;;;0.90;;
36373;SDS011;22399;51.346;12.372;2023-07-13T07:38:42;8.13;;;0.70;;
36373;SDS011;22399;51.346;12.372;2023-07-13T07:41:12;5.63;;;0.80;;
36373;SDS011;22399;51.346;12.372;2023-07-13T07:43:44;3.03;;;0.50;;
36373;SDS011;22399;51.346;12.372;2023-07-13T07:46:14;7.82;;;1.00;;
36373;SDS011;22399;51.346;12.372;2023-07-13T07:48:42;8.40;;;0.70;;
36373;SDS011;22399;51.346;12.372;2023-07-13T07:51:11;7.57;;;1.10;;
36373;SDS011;22399;51.346;12.372;2023-07-13T07:53:40;5.15;;;0.60;;
36373;SDS011;22399;51.346;12.372;2023-07-13T07:56:08;2.47;;;0.60;;
36373;SDS011;22399;51.346;12.372;2023-07-13T07:58:40;5.75;;;0.90;;
36373;SDS011;22399;51.346;12.372;2023-07-13T08:01:13;1.63;;;0.38;;
36373;SDS011;22399;51.346;12.372;2023-07-13T08:03:45;1.88;;;0.57;;
36373;SDS011;22399;51.346;12.372;2023-07-13T08:06:16;3.42;;;0.85;;
36373;SDS011;22399;51.346;12.372;2023-07-13T08:08:49;4.47;;;0.75;;
36373;SDS011;22399;51.346;12.372;2023-07-13T08:11:17;3.40;;;0.75;;
36373;SDS011;22399;51.346;12.372;2023-07-13T08:13:49;2.45;;;0.45;;
36373;SDS011;22399;51.346;12.372;2023-07-13T08:16:22;3.78;;;0.47;;
36373;SDS011;22399;51.346;12.372;2023-07-13T08:18:51;3.88;;;0.60;;
36373;SDS011;22399;51.346;12.372;2023-07-13T08:21:19;2.20;;;0.47;;
36373;SDS011;22399;51.346;12.372;2023-07-13T08:23:49;6.35;;;0.80;;
36373;SDS011;22399;51.346;12.372;2023-07-13T08:26:17;2.55;;;0.55;;
36373;SDS011;22399;51.346;12.372;2023-07-13T08:28:46;4.90;;;0.50;;
36373;SDS011;22399;51.346;12.372;2023-07-13T08:31:15;2.90;;;0.60;;
36373;SDS011;22399;51.346;12.372;2023-07-13T08:33:45;6.95;;;2.22;;
36373;SDS011;22399;51.346;12.372;2023-07-13T08:36:13;12.98;;;1.15;;
36373;SDS011;22399;51.346;12.372;2023-07-13T08:38:42;1.77;;;0.47;;
36373;SDS011;22399;51.346;12.372;2023-07-13T08:41:12;6.50;;;0.55;;
36373;SDS011;22399;51.346;12.372;2023-07-13T08:43:42;7.60;;;0.90;;
36373;SDS011;22399;51.346;12.372;2023-07-13T08:46:15;5.07;;;0.60;;
36373;SDS011;22399;51.346;12.372;2023-07-13T08:48:49;6.65;;;0.90;;
36373;SDS011;22399;51.346;12.372;2023-07-13T08:51:23;3.72;;;0.60;;
36373;SDS011;22399;51.346;12.372;2023-07-13T08:54:04;2.42;;;0.70;;
36373;SDS011;22399;51.346;12.372;2023-07-13T08:56:37;4.05;;;0.68;;
36373;SDS011;22399;51.346;12.372;2023-07-13T08:59:09;2.22;;;0.70;;
36373;SDS011;22399;51.346;12.372;2023-07-13T09:01:47;3.85;;;1.02;;
36373;SDS011;22399;51.346;12.372;2023-07-13T09:04:30;1.02;;;0.30;;
36373;SDS011;22399;51.346;12.372;2023-07-13T09:07:05;1.08;;;0.40;;
36373;SDS011;22399;51.346;12.372;2023-07-13T09:09:47;2.83;;;0.50;;
36373;SDS011;22399;51.346;12.372;2023-07-13T09:12:24;1.63;;;0.68;;
36373;SDS011;22399;51.346;12.372;2023-07-13T09:15:02;2.33;;;0.52;;
36373;SDS011;22399;51.346;12.372;2023-07-13T09:17:33;7.68;;;1.10;;
36373;SDS011;22399;51.346;12.372;2023-07-13T09:20:11;1.17;;;0.52;;
36373;SDS011;22399;51.346;12.372;2023-07-13T09:22:51;6.85;;;0.50;;
36373;SDS011;22399;51.346;12.372;2023-07-13T09:25:24;5.38;;;0.90;;
36373;SDS011;22399;51.346;12.372;2023-07-13T09:27:58;7.68;;;0.50;;
36373;SDS011;22399;51.346;12.372;2023-07-13T09:30:37;5.88;;;0.75;;
36373;SDS011;22399;51.346;12.372;2023-07-13T09:33:57;6.88;;;0.70;;
36373;SDS011;22399;51.346;12.372;2023-07-13T09:36:37;5.32;;;0.70;;
36373;SDS011;22399;51.346;12.372;2023-07-13T09:39:09;3.58;;;0.68;;
36373;SDS011;22399;51.346;12.372;2023-07-13T09:41:48;1.00;;;0.38;;
36373;SDS011;22399;51.346;12.372;2023-07-13T09:44:27;2.40;;;0.70;;
36373;SDS011;22399;51.346;12.372;2023-07-13T09:46:58;2.25;;;0.55;;
36373;SDS011;22399;51.346;12.372;2023-07-13T09:49:27;6.25;;;0.75;;
36373;SDS011;22399;51.346;12.372;2023-07-13T09:51:59;8.25;;;0.95;;
36373;SDS011;22399;51.346;12.372;2023-07-13T09:54:32;1.33;;;0.50;;
36373;SDS011;22399;51.346;12.372;2023-07-13T09:57:08;5.45;;;0.60;;
36373;SDS011;22399;51.346;12.372;2023-07-13T09:59:42;2.70;;;0.80;;
36373;SDS011;22399;51.346;12.372;2023-07-13T10:02:23;3.13;;;0.75;;
36373;SDS011;22399;51.346;12.372;2023-07-13T10:04:57;2.22;;;1.05;;
36373;SDS011;22399;51.346;12.372;2023-07-13T10:07:29;0.60;;;0.43;;
36373;SDS011;22399;51.346;12.372;2023-07-13T10:09:59;3.20;;;0.60;;
36373;SDS011;22399;51.346;12.372;2023-07-13T10:12:29;0.52;;;0.20;;
36373;SDS011;22399;51.346;12.372;2023-07-13T10:15:03;2.60;;;0.53;;
36373;SDS011;22399;51.346;12.372;2023-07-13T10:17:50;1.52;;;0.93;;
36373;SDS011;22399;51.346;12.372;2023-07-13T10:20:19;1.83;;;0.50;;
36373;SDS011;22399;51.346;12.372;2023-07-13T10:22:51;4.95;;;0.68;;
36373;SDS011;22399;51.346;12.372;2023-07-13T10:27:53;1.67;;;0.65;;
36373;SDS011;22399;51.346;12.372;2023-07-13T10:30:27;3.38;;;0.50;;
36373;SDS011;22399;51.346;12.372;2023-07-13T10:32:59;2.60;;;0.60;;
36373;SDS011;22399;51.346;12.372;2023-07-13T10:35:29;3.53;;;0.82;;
36373;SDS011;22399;51.346;12.372;2023-07-13T10:38:00;4.05;;;0.95;;
36373;SDS011;22399;51.346;12.372;2023-07-13T10:40:33;1.42;;;0.50;;
36373;SDS011;22399;51.346;12.372;2023-07-13T10:43:06;1.83;;;0.70;;
36373;SDS011;22399;51.346;12.372;2023-07-13T10:45:46;2.58;;;0.75;;
36373;SDS011;22399;51.346;12.372;2023-07-13T10:48:16;1.58;;;0.60;;
36373;SDS011;22399;51.346;12.372;2023-07-13T10:50:46;4.93;;;0.90;;
36373;SDS011;22399;51.346;12.372;2023-07-13T10:53:19;7.32;;;0.63;;
36373;SDS011;22399;51.346;12.372;2023-07-13T10:55:55;1.30;;;0.60;;
36373;SDS011;22399;51.346;12.372;2023-07-13T10:58:31;3.22;;;0.60;;
36373;SDS011;22399;51.346;12.372;2023-07-13T11:01:08;2.75;;;0.63;;
36373;SDS011;22399;51.346;12.372;2023-07-13T11:03:46;4.72;;;0.50;;
36373;SDS011;22399;51.346;12.372;2023-07-13T11:06:27;2.40;;;0.45;;
36373;SDS011;22399;51.346;12.372;2023-07-13T11:09:17;4.90;;;0.70;;
36373;SDS011;22399;51.346;12.372;2023-07-13T11:11:47;0.75;;;0.38;;
36373;SDS011;22399;51.346;12.372;2023-07-13T11:14:27;3.88;;;0.40;;
36373;SDS011;22399;51.346;12.372;2023-07-13T11:16:58;0.70;;;0.40;;
36373;SDS011;22399;51.346;12.372;2023-07-13T11:19:38;2.55;;;0.50;;
36373;SDS011;22399;51.346;12.372;2023-07-13T11:22:13;4.75;;;0.40;;
36373;SDS011;22399;51.346;12.372;2023-07-13T11:24:58;2.58;;;0.47;;
36373;SDS011;22399;51.346;12.372;2023-07-13T11:27:38;5.55;;;0.40;;
36373;SDS011;22399;51.346;12.372;2023-07-13T11:30:23;2.47;;;0.80;;
36373;SDS011;22399;51.346;12.372;2023-07-13T11:33:02;6.43;;;0.45;;
36373;SDS011;22399;51.346;12.372;2023-07-13T11:35:42;4.03;;;0.45;;
36373;SDS011;22399;51.346;12.372;2023-07-13T11:38:19;1.00;;;0.40;;
36373;SDS011;22399;51.346;12.372;2023-07-13T11:40:51;1.60;;;0.75;;
36373;SDS011;22399;51.346;12.372;2023-07-13T11:43:22;0.98;;;0.20;;
36373;SDS011;22399;51.346;12.372;2023-07-13T11:45:52;3.40;;;0.32;;
36373;SDS011;22399;51.346;12.372;2023-07-13T11:48:21;0.98;;;0.40;;
36373;SDS011;22399;51.346;12.372;2023-07-13T11:50:58;1.92;;;0.40;;
36373;SDS011;22399;51.346;12.372;2023-07-13T11:53:30;2.58;;;0.35;;
36373;SDS011;22399;51.346;12.372;2023-07-13T11:56:07;0.35;;;0.32;;
36373;SDS011;22399;51.346;12.372;2023-07-13T11:58:36;1.60;;;0.60;;
36373;SDS011;22399;51.346;12.372;2023-07-13T12:01:05;2.03;;;0.40;;
36373;SDS011;22399;51.346;12.372;2023-07-13T12:03:33;5.43;;;0.68;;
36373;SDS011;22399;51.346;12.372;2023-07-13T12:06:04;3.60;;;0.35;;
36373;SDS011;22399;51.346;12.372;2023-07-13T12:08:37;0.25;;;0.20;;
36373;SDS011;22399;51.346;12.372;2023-07-13T12:11:13;1.95;;;0.82;;
36373;SDS011;22399;51.346;12.372;2023-07-13T12:13:44;2.13;;;0.40;;
36373;SDS011;22399;51.346;12.372;2023-07-13T12:16:16;1.30;;;0.30;;
36373;SDS011;22399;51.346;12.372;2023-07-13T12:18:51;1.13;;;0.45;;
36373;SDS011;22399;51.346;12.372;2023-07-13T12:21:22;2.30;;;0.30;;
36373;SDS011;22399;51.346;12.372;2023-07-13T12:23:57;0.20;;;0.20;;
36373;SDS011;22399;51.346;12.372;2023-07-13T12:26:30;4.75;;;0.20;;
36373;SDS011;22399;51.346;12.372;2023-07-13T12:29:01;1.45;;;0.35;;
36373;SDS011;22399;51.346;12.372;2023-07-13T12:31:34;2.42;;;0.47;;
36373;SDS011;22399;51.346;12.372;2023-07-13T12:34:07;5.57;;;0.30;;
36373;SDS011;22399;51.346;12.372;2023-07-13T12:36:38;1.15;;;0.55;;
36373;SDS011;22399;51.346;12.372;2023-07-13T12:39:13;0.70;;;0.30;;
36373;SDS011;22399;51.346;12.372;2023-07-13T12:41:46;0.88;;;0.35;;
36373;SDS011;22399;51.346;12.372;2023-07-13T12:44:17;0.80;;;0.40;;
36373;SDS011;22399;51.346;12.372;2023-07-13T12:46:53;0.40;;;0.38;;
36373;SDS011;22399;51.346;12.372;2023-07-13T12:49:27;1.92;;;0.60;;
36373;SDS011;22399;51.346;12.372;2023-07-13T12:52:00;5.47;;;0.45;;
36373;SDS011;22399;51.346;12.372;2023-07-13T12:54:30;1.27;;;0.40;;
36373;SDS011;22399;51.346;12.372;2023-07-13T12:57:00;1.80;;;0.30;;
36373;SDS011;22399;51.346;12.372;2023-07-13T12:59:30;0.63;;;0.30;;
36373;SDS011;22399;51.346;12.372;2023-07-13T13:02:07;0.20;;;0.20;;
36373;SDS011;22399;51.346;12.372;2023-07-13T13:04:54;0.52;;;0.30;;
36373;SDS011;22399;51.346;12.372;2023-07-13T13:07:24;3.67;;;0.32;;
36373;SDS011;22399;51.346;12.372;2023-07-13T13:09:53;1.95;;;0.40;;
36373;SDS011;22399;51.346;12.372;2023-07-13T13:12:22;0.43;;;0.10;;
36373;SDS011;22399;51.346;12.372;2023-07-13T13:14:53;0.80;;;0.43;;
36373;SDS011;22399;51.346;12.372;2023-07-13T13:17:23;4.57;;;0.30;;
36373;SDS011;22399;51.346;12.372;2023-07-13T13:19:56;0.30;;;0.23;;
36373;SDS011;22399;51.346;12.372;2023-07-13T13:22:25;1.17;;;0.40;;
36373;SDS011;22399;51.346;12.372;2023-07-13T13:24:53;5.78;;;0.20;;
36373;SDS011;22399;51.346;12.372;2023-07-13T13:27:23;5.80;;;0.45;;
36373;SDS011;22399;51.346;12.372;2023-07-13T13:29:52;1.08;;;0.40;;
36373;SDS011;22399;51.346;12.372;2023-07-13T13:32:21;2.30;;;0.38;;
36373;SDS011;22399;51.346;12.372;2023-07-13T13:34:49;2.17;;;0.40;;
36373;SDS011;22399;51.346;12.372;2023-07-13T13:37:19;1.10;;;0.40;;
36373;SDS011;22399;51.346;12.372;2023-07-13T13:39:49;1.75;;;0.50;;
36373;SDS011;22399;51.346;12.372;2023-07-13T13:42:35;1.80;;;0.40;;
36373;SDS011;22399;51.346;12.372;2023-07-13T13:45:04;1.92;;;0.60;;
36373;SDS011;22399;51.346;12.372;2023-07-13T13:47:35;1.77;;;0.47;;
36373;SDS011;22399;51.346;12.372;2023-07-13T13:50:10;0.40;;;0.22;;
36373;SDS011;22399;51.346;12.372;2023-07-13T13:52:42;2.38;;;0.43;;
36373;SDS011;22399;51.346;12.372;2023-07-13T13:55:12;3.80;;;0.28;;
36373;SDS011;22399;51.346;12.372;2023-07-13T13:57:43;1.08;;;0.52;;
36373;SDS011;22399;51.346;12.372;2023-07-13T14:00:12;3.25;;;0.40;;
36373;SDS011;22399;51.346;12.372;2023-07-13T14:02:44;3.42;;;0.93;;
36373;SDS011;22399;51.346;12.372;2023-07-13T14:05:18;0.63;;;0.30;;
36373;SDS011;22399;51.346;12.372;2023-07-13T14:07:49;1.08;;;0.40;;
36373;SDS011;22399;51.346;12.372;2023-07-13T14:10:19;1.27;;;0.30;;
36373;SDS011;22399;51.346;12.372;2023-07-13T14:12:51;0.55;;;0.28;;
36373;SDS011;22399;51.346;12.372;2023-07-13T14:15:24;2.13;;;0.50;;
36373;SDS011;22399;51.346;12.372;2023-07-13T14:17:54;0.30;;;0.30;;
36373;SDS011;22399;51.346;12.372;2023-07-13T14:20:24;0.50;;;0.32;;
36373;SDS011;22399;51.346;12.372;2023-07-13T14:22:53;0.90;;;0.50;;
36373;SDS011;22399;51.346;12.372;2023-07-13T14:25:22;5.28;;;0.70;;
36373;SDS011;22399;51.346;12.372;2023-07-13T14:27:55;2.63;;;0.52;;
36373;SDS011;22399;51.346;12.372;2023-07-13T14:30:27;0.47;;;0.30;;
36373;SDS011;22399;51.346;12.372;2023-07-13T14:32:56;0.77;;;0.32;;
36373;SDS011;22399;51.346;12.372;2023-07-13T14:35:24;3.17;;;0.57;;
36373;SDS011;22399;51.346;12.372;2023-07-13T14:37:54;3.92;;;0.82;;
36373;SDS011;22399;51.346;12.372;2023-07-13T14:40:25;2.28;;;0.50;;
36373;SDS011;22399;51.346;12.372;2023-07-13T14:42:58;3.15;;;0.30;;
36373;SDS011;22399;51.346;12.372;2023-07-13T14:45:27;4.07;;;0.50;;
36373;SDS011;22399;51.346;12.372;2023-07-13T14:47:56;1.83;;;0.57;;
36373;SDS011;22399;51.346;12.372;2023-07-13T14:50:27;1.95;;;0.68;;
36373;SDS011;22399;51.346;12.372;2023-07-13T14:52:59;1.25;;;0.68;;
36373;SDS011;22399;51.346;12.372;2023-07-13T14:55:28;7.55;;;0.80;;
36373;SDS011;22399;51.346;12.372;2023-07-13T14:57:57;8.95;;;0.88;;
36373;SDS011;22399;51.346;12.372;2023-07-13T15:00:26;1.02;;;0.50;;
36373;SDS011;22399;51.346;12.372;2023-07-13T15:02:57;1.42;;;0.30;;